Togus, Maine
Current Conditions -  °F | °C
As of 11:18 AM on Wednesday 22 Oct 2014 (Local Time) from KAUG Reporting Station
Overcast Overcast  
Wind Chill: 37°   Ceiling: 1000
Heat Index: 45°   Visibility: 10mi
Dew Point: 42°   Wind: 18mph
Humidity: 90%   Direction: 30°NNE
Pressure: 30.17"   Gusts: 25mph
Location:  44.3261°N, 69.698°W
Report Text: KAUG 221518Z AUTO 03016G22KT 10SM OVC010 07/06 A3017 RMK AO2 T00720056
Loading
Personal Weather Stations






























Interactive Weather Map
Tropical Storm Tracking
New forecast layout! Learn more

10-Day Weather Forecast

Advertisements
Track Severe Weather on mobile